createdAt,value
2022-12-06T00:01:29.562Z,4.42
2022-12-06T00:03:59.209Z,4.47
2022-12-06T00:06:28.733Z,4.51
2022-12-06T00:08:57.480Z,4.53
2022-12-06T00:11:27.149Z,4.51
2022-12-06T00:14:00.216Z,4.51
2022-12-06T00:16:28.515Z,4.52
2022-12-06T00:18:56.343Z,4.49
2022-12-06T00:21:26.395Z,4.49
2022-12-06T00:23:55.803Z,4.40
2022-12-06T00:26:23.791Z,4.40
2022-12-06T00:28:53.101Z,4.42
2022-12-06T00:31:22.015Z,4.41
2022-12-06T00:33:49.136Z,4.41
2022-12-06T00:36:21.306Z,4.45
2022-12-06T00:38:49.072Z,4.33
2022-12-06T00:41:21.772Z,4.46
2022-12-06T00:43:49.511Z,4.43
2022-12-06T00:46:19.681Z,4.45
2022-12-06T00:48:48.216Z,4.46
2022-12-06T00:51:17.236Z,4.45
2022-12-06T00:53:45.398Z,4.50
2022-12-06T00:56:12.967Z,4.53
2022-12-06T00:58:40.259Z,4.48
2022-12-06T01:01:12.539Z,4.44
2022-12-06T01:03:41.160Z,4.51
2022-12-06T01:06:10.891Z,4.56
2022-12-06T01:08:39.001Z,4.57
2022-12-06T01:11:07.819Z,4.54
2022-12-06T01:13:35.240Z,4.65
2022-12-06T01:16:10.363Z,4.68
2022-12-06T01:18:38.047Z,4.65
2022-12-06T01:21:08.018Z,4.62
2022-12-06T01:23:35.229Z,4.57
2022-12-06T01:26:03.229Z,4.55
2022-12-06T01:28:30.019Z,4.63
2022-12-06T01:30:57.614Z,4.59
2022-12-06T01:33:24.786Z,4.62
2022-12-06T01:35:51.875Z,4.63
2022-12-06T01:38:18.995Z,4.60
2022-12-06T01:40:48.385Z,4.64
2022-12-06T01:43:33.827Z,4.66
2022-12-06T01:46:13.252Z,4.67
2022-12-06T01:48:41.164Z,4.68
2022-12-06T01:51:11.236Z,4.74
2022-12-06T01:53:40.596Z,4.75
2022-12-06T01:56:09.035Z,4.68
2022-12-06T01:58:39.142Z,4.69
2022-12-06T02:01:08.053Z,4.65
2022-12-06T02:03:36.056Z,4.67
2022-12-06T02:06:06.427Z,4.63
2022-12-06T02:08:34.306Z,4.71
2022-12-06T02:11:02.980Z,4.71
2022-12-06T02:13:32.240Z,4.74
2022-12-06T02:16:09.088Z,4.77
2022-12-06T02:18:51.842Z,4.79
2022-12-06T02:21:27.420Z,4.79
2022-12-06T02:24:23.374Z,4.81
2022-12-06T02:27:00.393Z,4.86
2022-12-06T02:29:36.434Z,4.82
2022-12-06T02:32:16.986Z,4.80
2022-12-06T02:34:54.939Z,4.72
2022-12-06T02:37:29.469Z,4.74
2022-12-06T02:40:03.383Z,4.69
2022-12-06T02:42:41.221Z,4.70
2022-12-06T02:45:19.203Z,4.63
2022-12-06T02:47:48.563Z,4.57
2022-12-06T02:50:20.088Z,4.62
2022-12-06T02:52:51.365Z,4.61
2022-12-06T02:55:19.916Z,4.59
2022-12-06T02:57:50.267Z,4.62
2022-12-06T03:00:36.264Z,4.63
2022-12-06T03:03:12.498Z,4.65
2022-12-06T03:05:52.951Z,4.63
2022-12-06T03:08:33.965Z,4.58
2022-12-06T03:11:02.205Z,4.64
2022-12-06T03:13:51.235Z,4.66
2022-12-06T03:16:47.679Z,4.65
2022-12-06T03:19:22.240Z,4.63
2022-12-06T03:22:06.088Z,4.58
2022-12-06T03:24:36.884Z,4.52
2022-12-06T03:27:12.198Z,4.56
2022-12-06T03:29:45.988Z,4.59
2022-12-06T03:32:16.371Z,4.57
2022-12-06T03:34:48.128Z,4.56
2022-12-06T03:37:22.150Z,4.53
2022-12-06T03:40:12.977Z,4.62
2022-12-06T03:42:40.508Z,4.57
2022-12-06T03:45:10.927Z,4.58
2022-12-06T03:47:51.299Z,4.63
2022-12-06T03:50:24.570Z,4.63
2022-12-06T03:52:54.926Z,4.65
2022-12-06T03:55:22.492Z,4.67
2022-12-06T03:57:49.574Z,4.66
2022-12-06T04:00:17.094Z,4.63
2022-12-06T04:02:44.101Z,4.68
2022-12-06T04:05:11.949Z,4.57
2022-12-06T04:07:39.411Z,4.57
2022-12-06T04:10:07.426Z,4.53
2022-12-06T04:12:53.722Z,4.47
2022-12-06T04:15:22.880Z,4.44
2022-12-06T04:18:08.640Z,4.35
2022-12-06T04:20:54.496Z,4.34
2022-12-06T04:23:21.946Z,4.33
2022-12-06T04:25:49.174Z,4.31
2022-12-06T04:28:35.188Z,4.34
2022-12-06T04:31:22.532Z,4.35
2022-12-06T04:34:08.999Z,4.34
2022-12-06T04:36:56.371Z,4.32
2022-12-06T04:39:24.409Z,4.32
2022-12-06T04:42:11.552Z,4.32
2022-12-06T04:44:39.171Z,4.29
2022-12-06T04:47:07.108Z,4.37
2022-12-06T04:49:36.064Z,4.44
2022-12-06T04:52:04.162Z,4.46
2022-12-06T04:54:31.499Z,4.42
2022-12-06T04:56:59.459Z,4.38
2022-12-06T04:59:26.933Z,4.32
2022-12-06T05:01:54.845Z,4.33
2022-12-06T05:04:22.889Z,4.40
2022-12-06T05:06:49.884Z,4.33
2022-12-06T05:09:17.160Z,4.29
2022-12-06T05:11:44.220Z,4.27
2022-12-06T05:14:11.524Z,4.26
2022-12-06T05:16:38.851Z,4.25
2022-12-06T05:19:05.990Z,4.23
2022-12-06T05:21:32.958Z,4.22
2022-12-06T05:24:00.070Z,4.17
2022-12-06T05:26:29.190Z,4.13
2022-12-06T05:28:57.610Z,4.11
2022-12-06T05:31:26.010Z,4.16
2022-12-06T05:33:53.826Z,4.09
2022-12-06T05:36:26.505Z,4.14
2022-12-06T05:38:53.921Z,4.05
2022-12-06T05:41:23.197Z,3.98
2022-12-06T05:43:50.349Z,3.97
2022-12-06T05:46:18.116Z,3.93
2022-12-06T05:48:45.520Z,3.86
2022-12-06T05:51:13.153Z,3.84
2022-12-06T05:53:41.127Z,3.80
2022-12-06T05:56:09.334Z,3.74
2022-12-06T05:58:37.075Z,3.68
2022-12-06T06:01:05.077Z,3.58
2022-12-06T06:03:32.115Z,3.67
2022-12-06T06:06:01.696Z,3.58
2022-12-06T06:08:29.984Z,3.54
2022-12-06T06:10:57.957Z,3.56
2022-12-06T06:13:24.957Z,3.56
2022-12-06T06:15:52.281Z,3.55
2022-12-06T06:18:19.831Z,3.61
2022-12-06T06:20:58.560Z,3.66
2022-12-06T06:23:26.598Z,3.71
2022-12-06T06:25:54.204Z,3.71
2022-12-06T06:28:21.663Z,3.67
2022-12-06T06:30:48.746Z,3.60
2022-12-06T06:33:16.578Z,3.62
2022-12-06T06:35:43.767Z,3.59
2022-12-06T06:38:10.928Z,3.72
2022-12-06T06:40:38.080Z,3.71
2022-12-06T06:43:23.810Z,3.68
2022-12-06T06:45:56.181Z,3.72
2022-12-06T06:48:24.367Z,3.71
2022-12-06T06:50:57.026Z,3.77
2022-12-06T06:53:25.442Z,3.74
2022-12-06T06:55:54.173Z,3.78
2022-12-06T06:58:21.492Z,3.75
2022-12-06T07:00:54.043Z,3.75
2022-12-06T07:03:21.428Z,3.75
2022-12-06T07:05:59.912Z,3.80
2022-12-06T07:08:27.841Z,3.86
2022-12-06T07:10:55.342Z,3.87
2022-12-06T07:13:24.456Z,3.93
2022-12-06T07:15:52.590Z,3.90
2022-12-06T07:18:20.421Z,3.93
2022-12-06T07:20:48.597Z,4.06
2022-12-06T07:23:16.257Z,4.12
2022-12-06T07:25:43.550Z,4.07
2022-12-06T07:28:10.477Z,4.14
2022-12-06T07:30:37.439Z,4.04
2022-12-06T07:33:04.424Z,4.06
2022-12-06T07:35:55.708Z,4.05
2022-12-06T07:38:19.499Z,4.14
2022-12-06T07:44:08.845Z,4.28
2022-12-06T07:46:36.091Z,4.36
2022-12-06T07:49:03.179Z,4.35
2022-12-06T07:54:15.934Z,4.41
2022-12-06T07:56:44.132Z,4.41
2022-12-06T07:59:11.670Z,4.54
2022-12-06T08:01:38.987Z,4.57
2022-12-06T08:04:07.268Z,4.76
2022-12-06T08:06:35.451Z,4.83
2022-12-06T08:09:02.472Z,4.94
2022-12-06T08:11:29.484Z,4.99
2022-12-06T08:13:56.528Z,5.01
2022-12-06T08:16:23.789Z,5.21
2022-12-06T08:18:50.717Z,5.24
2022-12-06T08:21:17.948Z,5.30
2022-12-06T08:23:45.078Z,5.36
2022-12-06T08:26:15.094Z,5.52
2022-12-06T08:28:43.539Z,5.52
2022-12-06T08:31:16.040Z,5.46
2022-12-06T08:33:43.447Z,5.52
2022-12-06T08:36:16.960Z,5.42
2022-12-06T08:38:44.510Z,5.52
2022-12-06T08:41:29.954Z,5.56
2022-12-06T08:43:58.509Z,5.56
2022-12-06T08:46:25.937Z,5.69
2022-12-06T08:48:53.557Z,5.71
2022-12-06T08:51:20.587Z,5.72
2022-12-06T08:53:48.082Z,5.77
2022-12-06T08:56:15.886Z,5.91
2022-12-06T08:58:43.353Z,6.07
2022-12-06T09:01:16.833Z,6.07
2022-12-06T09:03:44.052Z,6.15
2022-12-06T09:06:12.305Z,6.24
2022-12-06T09:08:39.484Z,6.24
2022-12-06T09:11:08.178Z,6.30
2022-12-06T09:13:37.353Z,6.37
2022-12-06T09:16:10.885Z,6.39
2022-12-06T09:18:38.229Z,6.39
2022-12-06T09:21:07.187Z,6.30
2022-12-06T09:23:35.382Z,6.26
2022-12-06T09:26:03.976Z,6.28
2022-12-06T09:28:31.296Z,6.22
2022-12-06T09:30:58.391Z,6.18
2022-12-06T09:33:25.859Z,6.23
2022-12-06T09:35:53.691Z,6.23
2022-12-06T09:38:23.153Z,6.29
2022-12-06T09:41:05.932Z,6.12
2022-12-06T09:43:35.761Z,6.09
2022-12-06T09:46:17.758Z,6.10
2022-12-06T09:49:08.899Z,6.13
2022-12-06T09:51:57.139Z,5.92
2022-12-06T09:54:59.883Z,5.96
2022-12-06T09:57:50.479Z,6.01
2022-12-06T10:00:23.471Z,6.10
2022-12-06T10:03:04.174Z,6.13
2022-12-06T10:05:55.664Z,6.20
2022-12-06T10:08:57.053Z,6.29
2022-12-06T10:11:44.290Z,6.27
2022-12-06T10:14:38.710Z,6.28
2022-12-06T10:17:20.732Z,6.32
2022-12-06T10:20:34.100Z,6.31
2022-12-06T10:23:28.171Z,6.37
2022-12-06T10:26:15.599Z,6.35
2022-12-06T10:28:47.520Z,6.39
2022-12-06T10:31:46.792Z,6.41
2022-12-06T10:34:33.972Z,6.51
2022-12-06T10:37:07.266Z,6.63
2022-12-06T10:40:04.365Z,6.73
2022-12-06T10:43:04.684Z,6.85
2022-12-06T10:46:09.577Z,6.81
2022-12-06T10:49:09.228Z,6.83
2022-12-06T10:51:44.018Z,6.85
2022-12-06T10:54:39.098Z,6.90
2022-12-06T10:57:16.098Z,6.97
2022-12-06T10:59:51.964Z,7.04
2022-12-06T11:02:38.206Z,7.07
2022-12-06T11:05:15.231Z,7.12
2022-12-06T11:07:45.603Z,7.12
2022-12-06T11:10:29.219Z,7.08
2022-12-06T11:13:03.887Z,7.14
2022-12-06T11:15:38.830Z,7.11
2022-12-06T11:18:15.907Z,7.09
2022-12-06T11:21:03.020Z,6.99
2022-12-06T11:23:48.627Z,6.99
2022-12-06T11:26:44.144Z,7.03
2022-12-06T11:29:13.921Z,7.01
2022-12-06T11:31:56.348Z,7.09
2022-12-06T11:34:26.669Z,7.18
2022-12-06T11:37:00.066Z,7.09
2022-12-06T11:39:30.278Z,7.23
2022-12-06T11:42:02.515Z,7.30
2022-12-06T11:44:54.022Z,7.34
2022-12-06T11:47:23.224Z,7.44
2022-12-06T11:49:54.613Z,7.52
2022-12-06T11:52:34.500Z,7.52
2022-12-06T11:55:27.838Z,7.44
2022-12-06T11:58:09.179Z,7.30
2022-12-06T12:00:36.369Z,7.20
2022-12-06T12:03:03.961Z,7.16
2022-12-06T12:05:39.056Z,7.11
2022-12-06T12:08:16.665Z,7.09
2022-12-06T12:10:46.042Z,7.05
2022-12-06T12:13:31.296Z,7.08
2022-12-06T12:16:17.769Z,7.08
2022-12-06T12:18:51.355Z,7.04
2022-12-06T12:21:31.600Z,7.05
2022-12-06T12:23:58.760Z,7.00
2022-12-06T12:26:43.139Z,7.03
2022-12-06T12:29:21.120Z,7.00
2022-12-06T12:31:54.318Z,6.94
2022-12-06T12:34:29.401Z,6.93
2022-12-06T12:37:03.013Z,6.92
2022-12-06T12:39:45.050Z,6.87
2022-12-06T12:42:40.269Z,6.82
2022-12-06T12:45:19.784Z,6.77
2022-12-06T12:47:57.837Z,6.83
2022-12-06T12:50:25.541Z,6.88
2022-12-06T12:52:53.540Z,6.96
2022-12-06T12:55:24.615Z,7.07
2022-12-06T12:57:59.255Z,7.05
2022-12-06T13:00:37.946Z,7.11
2022-12-06T13:03:34.817Z,7.05
2022-12-06T13:06:00.316Z,6.99
2022-12-06T13:08:35.350Z,6.96
2022-12-06T13:11:04.775Z,7.00
2022-12-06T13:13:40.504Z,7.01
2022-12-06T13:16:15.298Z,7.03
2022-12-06T13:18:48.778Z,7.01
2022-12-06T13:21:27.989Z,6.98
2022-12-06T13:24:07.723Z,6.96
2022-12-06T13:26:43.161Z,6.89
2022-12-06T13:29:34.218Z,6.89
2022-12-06T13:32:18.488Z,6.83
2022-12-06T13:35:15.948Z,6.73
2022-12-06T13:38:22.676Z,6.66
2022-12-06T13:41:02.990Z,6.67
2022-12-06T13:43:32.735Z,6.63
2022-12-06T13:46:07.930Z,6.56
2022-12-06T13:48:38.038Z,6.56
2022-12-06T13:51:30.986Z,6.54
2022-12-06T13:54:06.804Z,6.56
2022-12-06T13:56:33.734Z,6.55
2022-12-06T13:59:20.659Z,6.56
2022-12-06T14:01:55.304Z,6.57
2022-12-06T14:07:00.522Z,6.56
2022-12-06T14:09:36.916Z,6.58
2022-12-06T14:12:09.590Z,6.56
2022-12-06T14:14:36.493Z,6.56
2022-12-06T14:17:11.586Z,6.56
2022-12-06T14:19:44.953Z,6.56
2022-12-06T14:22:30.460Z,6.49
2022-12-06T14:25:07.211Z,6.51
2022-12-06T14:27:42.663Z,6.50
2022-12-06T14:30:25.176Z,6.62
2022-12-06T14:32:55.582Z,6.50
2022-12-06T14:35:36.224Z,6.47
2022-12-06T14:38:25.161Z,6.45
2022-12-06T14:41:11.805Z,6.43
2022-12-06T14:43:39.908Z,6.44
2022-12-06T14:46:11.988Z,6.38
2022-12-06T14:48:58.414Z,6.34
2022-12-06T14:51:34.063Z,6.40
2022-12-06T14:54:27.995Z,6.38
2022-12-06T14:56:55.225Z,6.37
2022-12-06T15:00:02.941Z,6.30
2022-12-06T15:02:26.208Z,6.33
2022-12-06T15:04:53.174Z,6.34
2022-12-06T15:07:41.810Z,6.33
2022-12-06T15:10:30.000Z,6.37
2022-12-06T15:13:08.825Z,6.37
2022-12-06T15:15:38.099Z,6.37
2022-12-06T15:18:13.466Z,6.32
2022-12-06T15:20:40.732Z,6.31
2022-12-06T15:23:28.360Z,6.34
2022-12-06T15:25:55.318Z,6.33
2022-12-06T15:28:22.915Z,6.28
2022-12-06T15:30:50.669Z,6.23
2022-12-06T15:33:23.271Z,6.18
2022-12-06T15:35:52.255Z,6.20
2022-12-06T15:38:19.484Z,6.21
2022-12-06T15:40:49.429Z,6.11
2022-12-06T15:43:36.846Z,6.20
2022-12-06T15:46:05.374Z,6.24
2022-12-06T15:48:36.879Z,6.24
2022-12-06T15:51:09.268Z,6.19
2022-12-06T15:53:37.762Z,6.19
2022-12-06T15:56:05.214Z,6.17
2022-12-06T15:58:32.207Z,6.17
2022-12-06T16:01:00.704Z,6.16
2022-12-06T16:03:28.003Z,6.17
2022-12-06T16:05:57.168Z,6.17
2022-12-06T16:08:24.388Z,6.17
2022-12-06T16:13:38.839Z,6.18
2022-12-06T16:16:06.492Z,6.17
2022-12-06T16:18:33.902Z,6.20
2022-12-06T16:21:01.198Z,6.21
2022-12-06T16:24:12.358Z,6.15
2022-12-06T16:26:44.083Z,6.17
2022-12-06T16:29:17.840Z,6.13
2022-12-06T16:31:45.695Z,6.11
2022-12-06T16:34:14.131Z,6.07
2022-12-06T16:37:13.619Z,6.07
2022-12-06T16:39:41.921Z,6.12
2022-12-06T16:42:09.238Z,6.13
2022-12-06T16:44:51.494Z,6.07
2022-12-06T16:47:18.737Z,6.05
2022-12-06T16:49:48.816Z,6.11
2022-12-06T16:52:17.323Z,6.05
2022-12-06T16:54:45.217Z,6.05
2022-12-06T16:57:13.027Z,6.04
2022-12-06T16:59:40.729Z,5.96
2022-12-06T17:02:24.619Z,5.82
2022-12-06T17:04:51.809Z,5.80
2022-12-06T17:07:19.264Z,5.78
2022-12-06T17:09:46.572Z,5.75
2022-12-06T17:12:15.399Z,5.72
2022-12-06T17:14:42.799Z,5.77
2022-12-06T17:17:18.830Z,5.77
2022-12-06T17:19:46.154Z,5.73
2022-12-06T17:22:16.866Z,5.64
2022-12-06T17:24:44.398Z,5.51
2022-12-06T17:27:15.170Z,5.59
2022-12-06T17:29:43.741Z,5.57
2022-12-06T17:32:11.868Z,5.49
2022-12-06T17:34:38.796Z,5.52
2022-12-06T17:37:06.791Z,5.45
2022-12-06T17:39:34.096Z,5.43
2022-12-06T17:42:20.164Z,5.21
2022-12-06T17:44:47.253Z,5.18
2022-12-06T17:47:14.192Z,5.22
2022-12-06T17:49:41.349Z,5.21
2022-12-06T17:52:08.307Z,5.16
2022-12-06T17:54:35.316Z,5.15
2022-12-06T17:57:02.459Z,5.17
2022-12-06T17:59:32.393Z,5.14
2022-12-06T18:02:17.221Z,5.17
2022-12-06T18:04:45.760Z,5.23
2022-12-06T18:07:14.052Z,5.12
2022-12-06T18:09:41.283Z,5.06
2022-12-06T18:12:09.588Z,5.00
2022-12-06T18:14:36.832Z,4.98
2022-12-06T18:17:04.515Z,5.10
2022-12-06T18:19:32.251Z,5.13
2022-12-06T18:21:59.386Z,5.15
2022-12-06T18:24:30.464Z,5.13
2022-12-06T18:27:00.990Z,5.00
2022-12-06T18:29:28.366Z,4.87
2022-12-06T18:31:55.629Z,4.79
2022-12-06T18:34:23.219Z,4.67
2022-12-06T18:36:51.221Z,4.67
2022-12-06T18:39:24.839Z,4.58
2022-12-06T18:41:53.816Z,4.58
2022-12-06T18:44:20.934Z,4.66
2022-12-06T18:46:48.422Z,4.55
2022-12-06T18:49:15.930Z,4.56
2022-12-06T18:51:43.595Z,4.58
2022-12-06T18:54:14.352Z,4.51
2022-12-06T18:56:42.040Z,4.54
2022-12-06T18:59:11.348Z,4.50
2022-12-06T19:01:41.387Z,4.49
2022-12-06T19:04:13.463Z,4.46
2022-12-06T19:06:40.751Z,4.42
2022-12-06T19:09:12.787Z,4.43
2022-12-06T19:11:56.645Z,4.36
2022-12-06T19:14:31.384Z,4.43
2022-12-06T19:17:02.827Z,4.45
2022-12-06T19:19:30.913Z,4.45
2022-12-06T19:21:59.021Z,4.46
2022-12-06T19:24:28.701Z,4.50
2022-12-06T19:27:00.232Z,4.35
2022-12-06T19:29:32.182Z,4.35
2022-12-06T19:32:00.180Z,4.38
2022-12-06T19:34:28.016Z,4.31
2022-12-06T19:36:57.568Z,4.32
2022-12-06T19:39:26.748Z,4.34
2022-12-06T19:42:12.738Z,4.27
2022-12-06T19:44:40.223Z,4.25
2022-12-06T19:47:08.081Z,4.30
2022-12-06T19:49:35.667Z,4.32
2022-12-06T19:52:02.935Z,4.30
2022-12-06T19:54:31.786Z,4.28
2022-12-06T19:57:00.705Z,4.22
2022-12-06T19:59:30.733Z,4.18
2022-12-06T20:02:00.843Z,4.09
2022-12-06T20:04:31.817Z,4.05
2022-12-06T20:06:59.140Z,4.09
2022-12-06T20:09:28.906Z,3.99
2022-12-06T20:12:04.816Z,3.94
2022-12-06T20:14:41.429Z,3.87
2022-12-06T20:17:14.878Z,3.81
2022-12-06T20:19:46.724Z,3.79
2022-12-06T20:22:16.523Z,3.80
2022-12-06T20:24:43.916Z,3.70
2022-12-06T20:27:12.387Z,3.70
2022-12-06T20:29:40.979Z,3.72
2022-12-06T20:32:09.456Z,3.66
2022-12-06T20:34:37.289Z,3.65
2022-12-06T20:37:06.202Z,3.61
2022-12-06T20:39:36.562Z,3.65
2022-12-06T20:42:07.405Z,3.66
2022-12-06T20:44:36.180Z,3.67
2022-12-06T20:47:05.119Z,3.57
2022-12-06T20:49:33.602Z,3.51
2022-12-06T20:52:03.108Z,3.52
2022-12-06T20:54:30.515Z,3.59
2022-12-06T20:56:58.585Z,3.61
2022-12-06T20:59:25.646Z,3.62
2022-12-06T21:01:52.905Z,3.56
2022-12-06T21:04:20.041Z,3.50
2022-12-06T21:06:47.129Z,3.60
2022-12-06T21:09:14.322Z,3.63
2022-12-06T21:11:41.676Z,3.59
2022-12-06T21:14:11.466Z,3.57
2022-12-06T21:16:40.157Z,3.55
2022-12-06T21:19:11.949Z,3.57
2022-12-06T21:21:41.384Z,3.55
2022-12-06T21:24:14.834Z,3.54
2022-12-06T21:26:42.360Z,3.59
2022-12-06T21:29:15.544Z,3.56
2022-12-06T21:31:42.709Z,3.61
2022-12-06T21:34:11.073Z,3.59
2022-12-06T21:36:38.213Z,3.63
2022-12-06T21:39:06.079Z,3.62
2022-12-06T21:41:33.482Z,3.68
2022-12-06T21:44:01.464Z,3.65
2022-12-06T21:46:28.344Z,3.57
2022-12-06T21:48:57.773Z,3.57
2022-12-06T21:51:27.745Z,3.59
2022-12-06T21:53:55.659Z,3.64
2022-12-06T21:56:25.171Z,3.63
2022-12-06T21:58:52.583Z,3.68
2022-12-06T22:01:24.225Z,3.77
2022-12-06T22:03:53.496Z,3.73
2022-12-06T22:06:21.971Z,3.72
2022-12-06T22:08:50.013Z,3.65
2022-12-06T22:11:18.030Z,3.64
2022-12-06T22:13:45.896Z,3.63
2022-12-06T22:16:13.982Z,3.58
2022-12-06T22:18:45.608Z,3.57
2022-12-06T22:21:21.543Z,3.57
2022-12-06T22:23:49.121Z,3.45
2022-12-06T22:26:19.698Z,3.42
2022-12-06T22:28:47.893Z,3.50
2022-12-06T22:31:19.307Z,3.48
2022-12-06T22:33:47.781Z,3.41
2022-12-06T22:36:16.068Z,3.43
2022-12-06T22:38:43.714Z,3.34
2022-12-06T22:41:11.260Z,3.30
2022-12-06T22:43:38.262Z,3.25
2022-12-06T22:46:14.961Z,3.16
2022-12-06T22:48:42.969Z,3.07
2022-12-06T22:51:10.041Z,3.04
2022-12-06T22:53:37.520Z,3.01
2022-12-06T22:56:05.140Z,3.04
2022-12-06T22:58:32.518Z,3.05
2022-12-06T23:00:59.578Z,3.08
2022-12-06T23:03:26.738Z,3.04
2022-12-06T23:06:00.635Z,3.06
2022-12-06T23:08:27.935Z,3.16
2022-12-06T23:11:03.685Z,3.09
2022-12-06T23:13:31.117Z,3.04
2022-12-06T23:16:04.953Z,3.03
2022-12-06T23:18:32.210Z,2.98
2022-12-06T23:21:11.458Z,2.95
2022-12-06T23:23:41.556Z,2.96
2022-12-06T23:26:14.567Z,2.91
2022-12-06T23:28:42.185Z,2.90
2022-12-06T23:31:17.996Z,2.93
2022-12-06T23:33:46.639Z,2.92
2022-12-06T23:36:17.850Z,2.95
2022-12-06T23:38:45.322Z,2.96
2022-12-06T23:41:21.611Z,3.03
2022-12-06T23:43:48.580Z,3.11
2022-12-06T23:46:22.186Z,3.13
2022-12-06T23:48:53.322Z,3.23
2022-12-06T23:51:23.421Z,3.31
2022-12-06T23:53:52.545Z,3.30
2022-12-06T23:56:21.398Z,3.36
2022-12-06T23:58:50.704Z,3.44
